createdAt,value
2019-02-04T00:00:03.548Z,85.1
2019-02-04T00:01:03.702Z,84.7
2019-02-04T00:02:03.358Z,85.1
2019-02-04T00:03:02.875Z,86.1
2019-02-04T00:04:04.111Z,87
2019-02-04T00:05:03.712Z,87.5
2019-02-04T00:06:03.351Z,88.6
2019-02-04T00:07:03.000Z,89.8
2019-02-04T00:08:03.057Z,88.6
2019-02-04T00:09:03.742Z,88.2
2019-02-04T00:10:03.782Z,88.2
2019-02-04T00:11:03.818Z,88.2
2019-02-04T00:12:03.469Z,87.9
2019-02-04T00:13:03.653Z,86.8
2019-02-04T00:14:03.691Z,88.4
2019-02-04T00:15:03.552Z,87.9
2019-02-04T00:16:03.324Z,87.7
2019-02-04T00:17:03.301Z,90
2019-02-04T00:18:03.073Z,88.9
2019-02-04T00:19:03.041Z,89.6
2019-02-04T00:20:03.048Z,90.7
2019-02-04T00:21:03.463Z,89.6
2019-02-04T00:22:03.411Z,90
2019-02-04T00:23:03.389Z,89.3
2019-02-04T00:24:02.963Z,90.5
2019-02-04T00:25:03.705Z,87.5
2019-02-04T00:26:03.346Z,88.9
2019-02-04T00:27:02.684Z,87.7
2019-02-04T00:28:03.579Z,87.5
2019-02-04T00:29:03.792Z,87.7
2019-02-04T00:30:04.107Z,87.5
2019-02-04T00:31:05.566Z,87
2019-02-04T00:32:03.087Z,86.8
2019-02-04T00:33:03.355Z,87.5
2019-02-04T00:34:03.515Z,86.8
2019-02-04T00:35:03.731Z,85.8
2019-02-04T00:36:03.231Z,87
2019-02-04T00:37:03.751Z,87.2
2019-02-04T00:38:04.302Z,86.8
2019-02-04T00:39:03.837Z,88.6
2019-02-04T00:40:03.182Z,87.2
2019-02-04T00:41:03.379Z,87.5
2019-02-04T00:42:03.177Z,88.6
2019-02-04T00:43:03.459Z,86.8
2019-02-04T00:44:03.027Z,87.9
2019-02-04T00:45:03.345Z,88.2
2019-02-04T00:46:04.498Z,88.4
2019-02-04T00:47:02.788Z,87.5
2019-02-04T00:48:03.052Z,87.7
2019-02-04T00:49:03.072Z,87
2019-02-04T00:50:03.002Z,86.3
2019-02-04T00:51:03.762Z,87.5
2019-02-04T00:52:03.529Z,86.8
2019-02-04T00:53:03.382Z,87
2019-02-04T00:54:05.068Z,87.2
2019-02-04T00:55:03.586Z,88.2
2019-02-04T00:56:03.140Z,88.4
2019-02-04T00:57:03.288Z,87.5
2019-02-04T00:58:03.220Z,88.2
2019-02-04T00:59:03.331Z,88.9
2019-02-04T01:00:03.445Z,88.2
2019-02-04T01:01:03.045Z,89.1
2019-02-04T01:02:04.235Z,88.9
2019-02-04T01:03:03.405Z,89.6
2019-02-04T01:04:03.407Z,88.9
2019-02-04T01:05:03.709Z,89.1
2019-02-04T01:06:02.812Z,87.5
2019-02-04T01:07:03.023Z,89.1
2019-02-04T01:08:02.872Z,88.2
2019-02-04T01:09:03.273Z,88.6
2019-02-04T01:10:02.795Z,87.7
2019-02-04T01:11:03.601Z,90.3
2019-02-04T01:12:03.127Z,89.3
2019-02-04T01:13:03.818Z,89.8
2019-02-04T01:14:03.228Z,88.9
2019-02-04T01:15:03.528Z,90.3
2019-02-04T01:16:02.894Z,87.9
2019-02-04T01:17:04.074Z,88.6
2019-02-04T01:18:03.248Z,88.6
2019-02-04T01:19:03.464Z,87.7
2019-02-04T01:20:03.544Z,87.7
2019-02-04T01:21:02.810Z,86.5
2019-02-04T01:22:03.349Z,87.2
2019-02-04T01:23:03.195Z,86.1
2019-02-04T01:24:02.936Z,87.2
2019-02-04T01:25:03.298Z,86.1
2019-02-04T01:26:03.669Z,86.5
2019-02-04T01:27:03.831Z,87.5
2019-02-04T01:28:02.899Z,87.9
2019-02-04T01:29:03.479Z,88.2
2019-02-04T01:30:03.431Z,88.6
2019-02-04T01:31:02.967Z,89.3
2019-02-04T01:32:03.686Z,87.9
2019-02-04T01:33:03.729Z,88.2
2019-02-04T01:34:03.296Z,87.9
2019-02-04T01:35:03.443Z,86.8
2019-02-04T01:36:03.526Z,87.2
2019-02-04T01:37:03.246Z,86.8
2019-02-04T01:38:03.487Z,87
2019-02-04T01:39:03.213Z,87.9
2019-02-04T01:40:03.486Z,87.5
2019-02-04T01:41:03.643Z,87.7
2019-02-04T01:42:02.922Z,87.9
2019-02-04T01:43:03.121Z,87.9
2019-02-04T01:44:03.637Z,88.4
2019-02-04T01:45:02.989Z,86.1
2019-02-04T01:46:03.691Z,87.2
2019-02-04T01:47:15.260Z,87.9
2019-02-04T01:48:03.563Z,87.9
2019-02-04T01:49:04.003Z,88.4
2019-02-04T01:50:03.440Z,90
2019-02-04T01:51:02.910Z,90
2019-02-04T01:52:03.694Z,90.5
2019-02-04T01:53:02.938Z,89.6
2019-02-04T01:54:03.716Z,90.5
2019-02-04T01:55:03.607Z,89.8
2019-02-04T01:56:02.837Z,88.9
2019-02-04T01:57:04.714Z,90
2019-02-04T01:58:03.647Z,89.3
2019-02-04T01:59:03.746Z,88.4
2019-02-04T02:00:03.437Z,87.2
2019-02-04T02:01:03.338Z,88.2
2019-02-04T02:02:03.434Z,86.8
2019-02-04T02:03:03.668Z,87.5
2019-02-04T02:04:03.070Z,85.8
2019-02-04T02:05:04.676Z,85.8
2019-02-04T02:06:02.985Z,84.7
2019-02-04T02:07:03.597Z,84.4
2019-02-04T02:08:03.154Z,84.2
2019-02-04T02:09:03.583Z,84.2
2019-02-04T02:10:03.022Z,83
2019-02-04T02:11:03.681Z,84.2
2019-02-04T02:12:03.601Z,86.1
2019-02-04T02:13:04.693Z,84.2
2019-02-04T02:14:03.411Z,86.8
2019-02-04T02:15:03.203Z,87
2019-02-04T02:16:02.991Z,86.8
2019-02-04T02:17:03.616Z,87
2019-02-04T02:18:03.702Z,87.5
2019-02-04T02:19:03.493Z,87.9
2019-02-04T02:20:03.442Z,88.6
2019-02-04T02:21:04.754Z,89.3
2019-02-04T02:22:03.502Z,92.1
2019-02-04T02:23:02.931Z,91
2019-02-04T02:24:03.814Z,91.4
2019-02-04T02:25:03.279Z,91.9
2019-02-04T02:26:03.120Z,94
2019-02-04T02:27:03.031Z,91
2019-02-04T02:28:03.853Z,91.9
2019-02-04T02:29:03.983Z,89.3
2019-02-04T02:30:03.758Z,91.7
2019-02-04T02:31:03.524Z,90.5
2019-02-04T02:32:03.683Z,90.7
2019-02-04T02:33:03.235Z,90.3
2019-02-04T02:34:03.845Z,90.3
2019-02-04T02:35:03.040Z,89.8
2019-02-04T02:36:03.796Z,91.2
2019-02-04T02:37:04.403Z,91.2
2019-02-04T02:38:03.204Z,91.2
2019-02-04T02:39:04.411Z,91
2019-02-04T02:40:03.804Z,89.8
2019-02-04T02:41:03.910Z,91
2019-02-04T02:42:03.176Z,89.3
2019-02-04T02:43:03.293Z,91.4
2019-02-04T02:44:02.766Z,91.2
2019-02-04T02:45:03.158Z,89.6
2019-02-04T02:46:03.332Z,90.5
2019-02-04T02:47:03.058Z,91
2019-02-04T02:48:03.123Z,91.7
2019-02-04T02:49:03.492Z,90
2019-02-04T02:50:03.109Z,91.7
2019-02-04T02:51:03.617Z,90.3
2019-02-04T02:52:04.068Z,90.3
2019-02-04T02:53:03.443Z,91
2019-02-04T02:54:03.413Z,90.5
2019-02-04T02:55:03.276Z,90.3
2019-02-04T02:56:03.338Z,89.8
2019-02-04T02:57:04.007Z,90
2019-02-04T02:58:03.492Z,90
2019-02-04T02:59:02.814Z,89.3
2019-02-04T03:00:04.433Z,90
2019-02-04T03:01:03.461Z,90.7
2019-02-04T03:02:03.744Z,88.9
2019-02-04T03:03:03.630Z,90
2019-02-04T03:04:03.540Z,89.3
2019-02-04T03:05:03.001Z,91
2019-02-04T03:06:03.005Z,88.9
2019-02-04T03:07:02.975Z,90.3
2019-02-04T03:08:04.955Z,90
2019-02-04T03:09:03.012Z,89.8
2019-02-04T03:10:03.132Z,89.6
2019-02-04T03:11:02.872Z,88.4
2019-02-04T03:12:03.294Z,88.2
2019-02-04T03:13:03.188Z,85.1
2019-02-04T03:14:03.078Z,86.5
2019-02-04T03:15:03.567Z,84.2
2019-02-04T03:16:04.748Z,85.4
2019-02-04T03:17:03.805Z,84.9
2019-02-04T03:18:02.680Z,85.6
2019-02-04T03:19:03.059Z,84.4
2019-02-04T03:20:03.559Z,83.5
2019-02-04T03:21:03.244Z,84.7
2019-02-04T03:22:03.891Z,83.7
2019-02-04T03:23:02.814Z,81.4
2019-02-04T03:24:04.628Z,81.4
2019-02-04T03:25:03.155Z,81.6
2019-02-04T03:26:03.062Z,80.2
2019-02-04T03:27:02.947Z,83
2019-02-04T03:28:03.247Z,81.2
2019-02-04T03:29:03.219Z,82.8
2019-02-04T03:30:03.513Z,83
2019-02-04T03:31:02.881Z,81.9
2019-02-04T03:32:04.171Z,82.3
2019-02-04T03:33:04.191Z,81.9
2019-02-04T03:34:03.709Z,83
2019-02-04T03:35:03.008Z,82.6
2019-02-04T03:36:03.324Z,82.1
2019-02-04T03:37:03.827Z,83
2019-02-04T03:38:03.037Z,81.6
2019-02-04T03:39:03.319Z,81.9
2019-02-04T03:40:04.677Z,82.1
2019-02-04T03:41:03.623Z,81.9
2019-02-04T03:42:03.843Z,81.9
2019-02-04T03:43:03.071Z,83.5
2019-02-04T03:44:02.724Z,83
2019-02-04T03:45:03.099Z,81.9
2019-02-04T03:46:03.694Z,82.8
2019-02-04T03:47:03.704Z,82.3
2019-02-04T03:48:09.872Z,82.3
2019-02-04T03:49:02.795Z,83
2019-02-04T03:50:03.193Z,80.9
2019-02-04T03:51:03.268Z,81.9
2019-02-04T03:52:03.198Z,81.4
2019-02-04T03:53:03.409Z,82.6
2019-02-04T03:54:03.691Z,82.3
2019-02-04T03:55:04.224Z,83.3
2019-02-04T03:56:04.639Z,84.7
2019-02-04T03:57:02.923Z,84.9
2019-02-04T03:58:02.988Z,85.8
2019-02-04T03:59:03.686Z,85.6
2019-02-04T04:00:03.191Z,88.2
2019-02-04T04:01:03.821Z,88.4
2019-02-04T04:02:03.064Z,88.2
2019-02-04T04:03:03.234Z,89.3
2019-02-04T04:04:04.521Z,89.1
2019-02-04T04:05:03.631Z,90.7
2019-02-04T04:06:03.048Z,89.8
2019-02-04T04:07:03.477Z,91.4
2019-02-04T04:08:03.791Z,90.7
2019-02-04T04:09:03.185Z,92.8
2019-02-04T04:10:03.464Z,92.1
2019-02-04T04:11:02.790Z,94.2
2019-02-04T04:12:04.608Z,95.4
2019-02-04T04:13:03.171Z,96.1
2019-02-04T04:14:03.301Z,95.9
2019-02-04T04:15:02.695Z,97
2019-02-04T04:16:03.725Z,95.2
2019-02-04T04:17:03.719Z,98
2019-02-04T04:18:02.948Z,96.1
2019-02-04T04:19:03.545Z,96.1
2019-02-04T04:20:03.009Z,95.9
2019-02-04T04:21:03.354Z,96.6
2019-02-04T04:22:03.059Z,95.4
2019-02-04T04:23:02.923Z,96.3
2019-02-04T04:24:03.200Z,94.9
2019-02-04T04:25:03.887Z,96.1
2019-02-04T04:26:03.054Z,93.8
2019-02-04T04:27:03.957Z,95.4
2019-02-04T04:28:03.230Z,93.1
2019-02-04T04:29:03.084Z,93.1
2019-02-04T04:30:03.158Z,94.5
2019-02-04T04:31:03.611Z,92.8
2019-02-04T04:32:03.731Z,95.9
2019-02-04T04:33:02.873Z,94.7
2019-02-04T04:34:03.053Z,97
2019-02-04T04:35:04.743Z,97.5
2019-02-04T04:36:03.029Z,96.8
2019-02-04T04:37:03.461Z,98
2019-02-04T04:38:02.892Z,98.2
2019-02-04T04:39:03.279Z,96.3
2019-02-04T04:40:03.374Z,97.3
2019-02-04T04:41:03.868Z,96.3
2019-02-04T04:42:03.119Z,95.6
2019-02-04T04:43:04.831Z,96.3
2019-02-04T04:44:03.454Z,94.2
2019-02-04T04:45:03.538Z,96.1
2019-02-04T04:46:02.911Z,94
2019-02-04T04:47:03.767Z,95.4
2019-02-04T04:48:03.046Z,96.6
2019-02-04T04:49:03.205Z,94.5
2019-02-04T04:50:03.094Z,95.6
2019-02-04T04:51:04.905Z,94.7
2019-02-04T04:52:03.329Z,94.7
2019-02-04T04:53:03.586Z,92.1
2019-02-04T04:54:03.058Z,92.8
2019-02-04T04:55:03.688Z,91.9
2019-02-04T04:56:03.539Z,92.8
2019-02-04T04:57:03.121Z,90.7
2019-02-04T04:58:02.869Z,92.4
2019-02-04T04:59:04.459Z,89.3
2019-02-04T05:00:02.823Z,91.4
2019-02-04T05:01:03.325Z,90
2019-02-04T05:02:03.409Z,89.6
2019-02-04T05:03:02.974Z,89.1
2019-02-04T05:04:02.981Z,88.2
2019-02-04T05:05:03.049Z,87.7
2019-02-04T05:06:03.582Z,88.6
2019-02-04T05:07:03.271Z,87.9
2019-02-04T05:08:03.294Z,87.7
2019-02-04T05:09:03.721Z,89.1
2019-02-04T05:10:03.807Z,86.3
2019-02-04T05:11:03.555Z,87
2019-02-04T05:12:03.493Z,85.8
2019-02-04T05:13:03.229Z,85.1
2019-02-04T05:14:03.293Z,84.9
2019-02-04T05:15:02.896Z,84.9
2019-02-04T05:16:03.847Z,84.2
2019-02-04T05:17:02.937Z,84.7
2019-02-04T05:18:03.104Z,84
2019-02-04T05:19:02.809Z,83
2019-02-04T05:20:03.521Z,83.5
2019-02-04T05:21:03.341Z,83
2019-02-04T05:22:03.382Z,83.3
2019-02-04T05:23:03.150Z,83
2019-02-04T05:24:03.030Z,86.3
2019-02-04T05:25:03.058Z,81.6
2019-02-04T05:26:03.899Z,84.9
2019-02-04T05:27:03.385Z,84.9
2019-02-04T05:28:03.036Z,85.6
2019-02-04T05:29:03.005Z,84
2019-02-04T05:30:03.331Z,84.7
2019-02-04T05:31:02.925Z,84
2019-02-04T05:32:04.028Z,84.4
2019-02-04T05:33:03.094Z,82.1
2019-02-04T05:34:03.332Z,83.3
2019-02-04T05:35:03.721Z,81.6
2019-02-04T05:36:02.926Z,81.4
2019-02-04T05:37:03.224Z,81.6
2019-02-04T05:38:03.880Z,81.2
2019-02-04T05:39:03.151Z,81.6
2019-02-04T05:40:03.295Z,80.5
2019-02-04T05:41:02.904Z,81.4
2019-02-04T05:42:02.982Z,81.6
2019-02-04T05:43:03.731Z,82.3
2019-02-04T05:44:03.631Z,83
2019-02-04T05:45:03.223Z,82.3
2019-02-04T05:46:04.194Z,80.9
2019-02-04T05:47:03.759Z,81.9
2019-02-04T05:48:03.515Z,82.3
2019-02-04T05:49:03.673Z,81.4
2019-02-04T05:50:03.699Z,83
2019-02-04T05:51:03.738Z,82.6
2019-02-04T05:52:03.250Z,83.7
2019-02-04T05:53:03.398Z,81.9
2019-02-04T05:54:04.176Z,83.3
2019-02-04T05:55:03.613Z,85.6
2019-02-04T05:56:02.916Z,83
2019-02-04T05:57:03.188Z,83
2019-02-04T05:58:03.748Z,83
2019-02-04T05:59:03.041Z,80.9
2019-02-04T06:00:03.426Z,81.4
2019-02-04T06:01:03.065Z,80.5
2019-02-04T06:02:04.641Z,80
2019-02-04T06:03:03.571Z,80.7
2019-02-04T06:04:03.516Z,80.5
2019-02-04T06:05:03.537Z,80.7
2019-02-04T06:06:03.152Z,80.2
2019-02-04T06:07:03.538Z,80.9
2019-02-04T06:08:03.752Z,80.2
2019-02-04T06:09:02.936Z,80.5
2019-02-04T06:10:04.963Z,80.9
2019-02-04T06:11:03.116Z,81.4
2019-02-04T06:12:03.093Z,81.6
2019-02-04T06:13:03.027Z,81.9
2019-02-04T06:14:03.663Z,82.8
2019-02-04T06:15:03.516Z,83.3
2019-02-04T06:16:03.093Z,81.9
2019-02-04T06:17:03.737Z,83.7
2019-02-04T06:18:03.205Z,83
2019-02-04T06:19:02.973Z,84.7
2019-02-04T06:20:03.540Z,83.7
2019-02-04T06:21:03.691Z,85.1
2019-02-04T06:22:03.590Z,84.4
2019-02-04T06:23:03.744Z,83.7
2019-02-04T06:24:03.646Z,85.1
2019-02-04T06:25:03.704Z,81.4
2019-02-04T06:26:03.058Z,84.2
2019-02-04T06:27:03.339Z,83.7
2019-02-04T06:28:03.705Z,85.4
2019-02-04T06:29:03.073Z,84.9
2019-02-04T06:30:03.834Z,85.8
2019-02-04T06:31:03.695Z,86.5
2019-02-04T06:32:02.899Z,86.5
2019-02-04T06:33:03.524Z,84.9
2019-02-04T06:34:03.398Z,85.4
2019-02-04T06:35:02.815Z,87
2019-02-04T06:36:03.898Z,86.3
2019-02-04T06:37:03.834Z,87.7
2019-02-04T06:38:02.885Z,87.2
2019-02-04T06:39:02.741Z,89.1
2019-02-04T06:40:03.079Z,87.9
2019-02-04T06:41:04.128Z,87.9
2019-02-04T06:42:03.122Z,87.9
2019-02-04T06:43:03.587Z,88.9
2019-02-04T06:44:03.800Z,88.9
2019-02-04T06:45:03.119Z,88.4
2019-02-04T06:46:03.026Z,87.9
2019-02-04T06:47:03.855Z,87.7
2019-02-04T06:48:03.709Z,87.7
2019-02-04T06:49:12.957Z,87.5
2019-02-04T06:50:03.264Z,87.2
2019-02-04T06:51:03.226Z,87.7
2019-02-04T06:52:03.723Z,86.8
2019-02-04T06:53:03.082Z,86.1
2019-02-04T06:54:03.076Z,86.3
2019-02-04T06:55:03.147Z,86.8
2019-02-04T06:56:03.162Z,87.2
2019-02-04T06:57:04.167Z,87
2019-02-04T06:58:02.938Z,89.1
2019-02-04T06:59:03.926Z,88.9
2019-02-04T07:00:03.244Z,90.3
2019-02-04T07:01:03.065Z,90.5
2019-02-04T07:02:02.890Z,90.5
2019-02-04T07:03:02.859Z,92.1
2019-02-04T07:04:03.767Z,91.4
2019-02-04T07:05:02.819Z,91.4
2019-02-04T07:06:03.806Z,92.1
2019-02-04T07:07:03.795Z,93.3
2019-02-04T07:08:03.540Z,94
2019-02-04T07:09:03.060Z,94.5
2019-02-04T07:10:03.346Z,94.9
2019-02-04T07:11:02.886Z,95.4
2019-02-04T07:12:04.843Z,93.5
2019-02-04T07:13:03.854Z,94.5
2019-02-04T07:14:03.812Z,93.5
2019-02-04T07:15:03.595Z,93.1
2019-02-04T07:16:03.653Z,92.1
2019-02-04T07:17:03.381Z,93.3
2019-02-04T07:18:03.415Z,93.3
2019-02-04T07:19:03.004Z,91.2
2019-02-04T07:20:04.657Z,92.8
2019-02-04T07:21:03.436Z,93.1
2019-02-04T07:22:03.009Z,92.4
2019-02-04T07:23:03.624Z,93.5
2019-02-04T07:24:03.612Z,94
2019-02-04T07:25:03.417Z,92.8
2019-02-04T07:26:03.685Z,94.7
2019-02-04T07:27:03.320Z,93.1
2019-02-04T07:28:05.215Z,93.1
2019-02-04T07:29:03.138Z,91.4
2019-02-04T07:30:03.392Z,91.2
2019-02-04T07:31:02.889Z,90.5
2019-02-04T07:32:03.177Z,90.3
2019-02-04T07:33:02.927Z,90
2019-02-04T07:34:03.907Z,90.5
2019-02-04T07:35:04.388Z,90.3
2019-02-04T07:36:03.899Z,89.3
2019-02-04T07:37:03.340Z,88.6
2019-02-04T07:38:03.178Z,88.9
2019-02-04T07:39:02.782Z,88.4
2019-02-04T07:40:03.586Z,90.3
2019-02-04T07:41:03.401Z,88.9
2019-02-04T07:42:03.572Z,88.4
2019-02-04T07:43:04.754Z,91.7
2019-02-04T07:44:03.146Z,89.1
2019-02-04T07:45:03.582Z,91.9
2019-02-04T07:46:02.977Z,91.9
2019-02-04T07:47:03.140Z,91.4
2019-02-04T07:48:03.611Z,93.5
2019-02-04T07:49:03.107Z,92.1
2019-02-04T07:50:04.186Z,92.4
2019-02-04T07:51:04.551Z,94
2019-02-04T07:52:02.859Z,93.5
2019-02-04T07:53:03.515Z,94.2
2019-02-04T07:54:03.606Z,94.9
2019-02-04T07:55:03.050Z,94.5
2019-02-04T07:56:03.317Z,94.7
2019-02-04T07:57:03.071Z,92.8
2019-02-04T07:58:02.894Z,93.3
2019-02-04T07:59:04.911Z,94
2019-02-04T08:00:03.324Z,94.9
2019-02-04T08:01:03.446Z,95.6
2019-02-04T08:02:02.965Z,95.2
2019-02-04T08:03:03.681Z,95.4
2019-02-04T08:04:03.125Z,93.1
2019-02-04T08:05:03.767Z,93.1
2019-02-04T08:06:03.842Z,92.1
2019-02-04T08:07:03.575Z,92.1
2019-02-04T08:08:03.582Z,89.6
2019-02-04T08:09:03.315Z,88.6
2019-02-04T08:10:03.018Z,86.5
2019-02-04T08:11:03.442Z,86.1
2019-02-04T08:12:03.753Z,84.2
2019-02-04T08:13:03.349Z,86.3
2019-02-04T08:14:03.278Z,85.8
2019-02-04T08:15:03.719Z,85.6
2019-02-04T08:16:03.370Z,85.6
2019-02-04T08:17:03.127Z,87.2
2019-02-04T08:18:03.115Z,87.2
2019-02-04T08:19:02.993Z,87.2
2019-02-04T08:20:03.322Z,86.8
2019-02-04T08:21:03.828Z,89.3
2019-02-04T08:22:04.272Z,86.3
2019-02-04T08:23:03.842Z,87.9
2019-02-04T08:24:03.264Z,87.7
2019-02-04T08:25:03.334Z,88.4
2019-02-04T08:26:03.510Z,87.5
2019-02-04T08:27:03.263Z,88.2
2019-02-04T08:28:03.857Z,89.6
2019-02-04T08:29:03.092Z,88.9
2019-02-04T08:30:04.272Z,89.6
2019-02-04T08:31:03.364Z,90.3
2019-02-04T08:32:02.958Z,92.1
2019-02-04T08:33:02.855Z,91.2
2019-02-04T08:34:03.193Z,92.8
2019-02-04T08:35:03.468Z,90
2019-02-04T08:36:03.836Z,89.6
2019-02-04T08:37:03.255Z,90.3
2019-02-04T08:38:04.042Z,90.3
2019-02-04T08:39:03.028Z,91
2019-02-04T08:40:03.329Z,91.4
2019-02-04T08:41:03.352Z,91.4
2019-02-04T08:42:02.937Z,91.4
2019-02-04T08:43:03.475Z,91.4
2019-02-04T08:44:02.812Z,89.8
2019-02-04T08:45:04.202Z,91.2
2019-02-04T08:46:03.947Z,90
2019-02-04T08:47:03.402Z,90.3
2019-02-04T08:48:03.055Z,90.7
2019-02-04T08:49:03.687Z,90.7
2019-02-04T08:50:03.037Z,89.6
2019-02-04T08:51:03.429Z,89.6
2019-02-04T08:52:03.170Z,88.4
2019-02-04T08:53:04.900Z,87.9
2019-02-04T08:54:03.528Z,88.9
2019-02-04T08:55:03.799Z,87.9
2019-02-04T08:56:03.231Z,88.4
2019-02-04T08:57:03.077Z,87.2
2019-02-04T08:58:03.770Z,88.4
2019-02-04T08:59:02.952Z,86.5
2019-02-04T09:00:04.990Z,86.5
2019-02-04T09:01:02.951Z,85.8
2019-02-04T09:02:03.752Z,85.8
2019-02-04T09:03:02.881Z,87.2
2019-02-04T09:04:03.030Z,87.9
2019-02-04T09:05:03.705Z,88.4
2019-02-04T09:06:03.806Z,91
2019-02-04T09:07:03.044Z,90.7
2019-02-04T09:08:04.636Z,93.1
2019-02-04T09:09:03.740Z,92.6
2019-02-04T09:10:03.228Z,94.5
2019-02-04T09:11:03.176Z,94.9
2019-02-04T09:12:03.729Z,94.9
2019-02-04T09:13:03.127Z,95.6
2019-02-04T09:14:03.332Z,97
2019-02-04T09:15:04.232Z,96.1
2019-02-04T09:16:03.405Z,97.3
2019-02-04T09:17:03.456Z,98
2019-02-04T09:18:03.270Z,96.1
2019-02-04T09:19:03.245Z,95.6
2019-02-04T09:20:10.731Z,94
2019-02-04T09:21:03.071Z,94.5
2019-02-04T09:22:03.195Z,94
2019-02-04T09:23:07.169Z,94.7
2019-02-04T09:24:03.037Z,94
2019-02-04T09:25:02.832Z,94.5
2019-02-04T09:26:03.358Z,94
2019-02-04T09:27:02.793Z,92.6
2019-02-04T09:28:03.532Z,94.9
2019-02-04T09:29:03.739Z,93.1
2019-02-04T09:30:03.672Z,94
2019-02-04T09:31:03.210Z,92.8
2019-02-04T09:32:03.363Z,93.3
2019-02-04T09:33:03.689Z,92.6
2019-02-04T09:34:03.557Z,92.8
2019-02-04T09:35:02.971Z,92.6
2019-02-04T09:36:03.541Z,92.4
2019-02-04T09:37:03.285Z,94.2
2019-02-04T09:38:04.121Z,94.9
2019-02-04T09:39:03.138Z,94.2
2019-02-04T09:40:03.849Z,94.9
2019-02-04T09:41:03.707Z,93.1
2019-02-04T09:42:02.753Z,94
2019-02-04T09:43:03.874Z,91.7
2019-02-04T09:44:03.091Z,92.1
2019-02-04T09:45:02.944Z,92.4
2019-02-04T09:46:04.595Z,93.8
2019-02-04T09:47:04.350Z,93.5
2019-02-04T09:48:03.404Z,94.5
2019-02-04T09:49:03.106Z,94.5
2019-02-04T09:50:03.295Z,94.7
2019-02-04T09:51:03.909Z,95.4
2019-02-04T09:52:03.616Z,95.4
2019-02-04T09:53:03.752Z,97.3
2019-02-04T09:54:03.071Z,97.3
2019-02-04T09:55:03.098Z,96.3
2019-02-04T09:56:03.707Z,96.8
2019-02-04T09:57:03.281Z,96.8
2019-02-04T09:58:03.811Z,97.5
2019-02-04T09:59:03.466Z,97
2019-02-04T10:00:03.555Z,96.3
2019-02-04T10:01:04.767Z,95.9
2019-02-04T10:02:03.186Z,96.3
2019-02-04T10:03:03.338Z,97.3
2019-02-04T10:04:03.115Z,94.2
2019-02-04T10:05:03.534Z,94.2
2019-02-04T10:06:03.168Z,94.9
2019-02-04T10:07:03.474Z,92.4
2019-02-04T10:08:03.001Z,93.3
2019-02-04T10:09:03.463Z,91.2
2019-02-04T10:10:03.520Z,92.8
2019-02-04T10:11:03.442Z,92.4
2019-02-04T10:12:03.111Z,91.7
2019-02-04T10:13:03.323Z,92.6
2019-02-04T10:14:03.058Z,91.2
2019-02-04T10:15:03.773Z,92.1
2019-02-04T10:16:03.063Z,91.7
2019-02-04T10:17:04.635Z,93.1
2019-02-04T10:18:03.766Z,92.6
2019-02-04T10:19:03.454Z,93.5
2019-02-04T10:20:03.716Z,93.5
2019-02-04T10:21:03.774Z,92.8
2019-02-04T10:22:03.571Z,94.2
2019-02-04T10:23:03.784Z,93.8
2019-02-04T10:24:03.306Z,93.8
2019-02-04T10:25:04.562Z,93.1
2019-02-04T10:26:03.047Z,94.9
2019-02-04T10:27:03.073Z,93.3
2019-02-04T10:28:03.844Z,94.5
2019-02-04T10:29:03.165Z,94
2019-02-04T10:30:03.568Z,94.5
2019-02-04T10:31:03.373Z,94.2
2019-02-04T10:32:03.804Z,93.1
2019-02-04T10:33:04.278Z,93.8
2019-02-04T10:34:03.661Z,93.8
2019-02-04T10:35:03.853Z,94
2019-02-04T10:36:03.307Z,94.5
2019-02-04T10:37:03.395Z,93.8
2019-02-04T10:38:03.756Z,94.5
2019-02-04T10:39:03.200Z,92.6
2019-02-04T10:40:03.134Z,93.5
2019-02-04T10:41:04.923Z,93.1
2019-02-04T10:42:03.969Z,93.3
2019-02-04T10:43:03.590Z,93.1
2019-02-04T10:44:03.217Z,93.1
2019-02-04T10:45:03.659Z,91.4
2019-02-04T10:46:05.652Z,93.3
2019-02-04T10:47:03.427Z,90.3
2019-02-04T10:48:03.446Z,90.7
2019-02-04T10:49:05.243Z,90.7
2019-02-04T10:50:03.749Z,90.5
2019-02-04T10:51:03.343Z,88.4
2019-02-04T10:52:03.682Z,89.8
2019-02-04T10:53:03.538Z,89.3
2019-02-04T10:54:03.428Z,89.3
2019-02-04T10:55:03.306Z,90
2019-02-04T10:56:03.979Z,89.8
2019-02-04T10:57:03.474Z,91
2019-02-04T10:58:03.541Z,92.4
2019-02-04T10:59:03.032Z,92.8
2019-02-04T11:00:04.101Z,92.8
2019-02-04T11:01:03.224Z,93.5
2019-02-04T11:02:03.963Z,92.8
2019-02-04T11:03:03.649Z,95.2
2019-02-04T11:04:03.872Z,92.1
2019-02-04T11:05:03.529Z,92.6
2019-02-04T11:06:03.391Z,95.2
2019-02-04T11:07:03.151Z,94
2019-02-04T11:08:03.543Z,94.5
2019-02-04T11:09:03.765Z,94.5
2019-02-04T11:10:03.761Z,97
2019-02-04T11:11:03.288Z,96.3
2019-02-04T11:12:04.510Z,95.9
2019-02-04T11:13:03.673Z,96.3
2019-02-04T11:14:03.053Z,95.4
2019-02-04T11:15:02.904Z,95.6
2019-02-04T11:16:04.004Z,94
2019-02-04T11:17:03.196Z,93.1
2019-02-04T11:18:03.234Z,94.2
2019-02-04T11:19:03.622Z,94.7
2019-02-04T11:20:04.505Z,94.2
2019-02-04T11:21:03.313Z,94.9
2019-02-04T11:22:03.704Z,95.2
2019-02-04T11:23:03.800Z,95.4
2019-02-04T11:24:03.492Z,95.9
2019-02-04T11:25:03.790Z,94.5
2019-02-04T11:26:03.785Z,95.6
2019-02-04T11:27:03.914Z,95.9
2019-02-04T11:28:03.321Z,96.1
2019-02-04T11:29:03.218Z,94.7
2019-02-04T11:30:03.992Z,95.9
2019-02-04T11:31:03.339Z,95.4
2019-02-04T11:32:03.065Z,95.6
2019-02-04T11:33:03.826Z,95.9
2019-02-04T11:34:03.046Z,95.6
2019-02-04T11:35:03.727Z,95.9
2019-02-04T11:36:03.508Z,94.5
2019-02-04T11:37:03.674Z,95.4
2019-02-04T11:38:03.549Z,93.8
2019-02-04T11:39:03.366Z,94.9
2019-02-04T11:40:03.638Z,94.2
2019-02-04T11:41:03.080Z,93.1
2019-02-04T11:42:03.347Z,93.8
2019-02-04T11:43:04.179Z,94
2019-02-04T11:44:03.929Z,94.2
2019-02-04T11:45:03.746Z,94.7
2019-02-04T11:46:03.566Z,94.2
2019-02-04T11:47:03.754Z,93.8
2019-02-04T11:48:03.568Z,94
2019-02-04T11:49:03.592Z,95.6
2019-02-04T11:50:02.892Z,95.4
2019-02-04T11:51:10.348Z,94.2
2019-02-04T11:52:03.735Z,94.5
2019-02-04T11:53:03.749Z,94
2019-02-04T11:54:03.168Z,93.3
2019-02-04T11:55:03.568Z,94.2
2019-02-04T11:56:03.323Z,93.8
2019-02-04T11:57:03.398Z,93.1
2019-02-04T11:58:03.637Z,93.3
2019-02-04T11:59:04.331Z,92.8
2019-02-04T12:00:03.779Z,93.1
2019-02-04T12:01:03.439Z,92.6
2019-02-04T12:02:03.100Z,92.4
2019-02-04T12:03:03.069Z,92.8
2019-02-04T12:04:03.164Z,92.6
2019-02-04T12:05:03.609Z,92.6
2019-02-04T12:06:03.770Z,94.2
2019-02-04T12:07:04.942Z,93.3
2019-02-04T12:08:03.431Z,93.1
2019-02-04T12:09:03.639Z,91.4
2019-02-04T12:10:02.919Z,92.6
2019-02-04T12:11:03.675Z,91.2
2019-02-04T12:12:03.345Z,90.5
2019-02-04T12:13:03.276Z,91.9
2019-02-04T12:14:02.936Z,91.7
2019-02-04T12:15:03.397Z,92.4
2019-02-04T12:16:03.361Z,92.4
2019-02-04T12:17:03.719Z,91
2019-02-04T12:18:03.195Z,90.3
2019-02-04T12:19:03.528Z,88.9
2019-02-04T12:20:03.554Z,91.4
2019-02-04T12:21:03.366Z,89.1
2019-02-04T12:22:04.272Z,90.7
2019-02-04T12:23:03.053Z,91
2019-02-04T12:24:02.803Z,89.6
2019-02-04T12:25:03.337Z,88.6
2019-02-04T12:26:02.979Z,90.3
2019-02-04T12:27:03.505Z,89.3
2019-02-04T12:28:02.993Z,90.5
2019-02-04T12:29:03.070Z,88.9
2019-02-04T12:30:04.480Z,89.8
2019-02-04T12:31:03.342Z,90.3
2019-02-04T12:32:04.298Z,91
2019-02-04T12:33:03.515Z,91.9
2019-02-04T12:34:02.953Z,92.4
2019-02-04T12:35:03.322Z,91.9
2019-02-04T12:36:02.862Z,91.9
2019-02-04T12:37:03.943Z,94
2019-02-04T12:38:05.131Z,92.4
2019-02-04T12:39:03.314Z,94.5
2019-02-04T12:40:03.867Z,95.9
2019-02-04T12:41:03.563Z,97
2019-02-04T12:42:02.681Z,96.8
2019-02-04T12:43:03.311Z,97.7
2019-02-04T12:44:03.363Z,98
2019-02-04T12:45:03.333Z,97.5
2019-02-04T12:46:03.842Z,97.3
2019-02-04T12:47:02.978Z,97.5
2019-02-04T12:48:02.899Z,96.6
2019-02-04T12:49:03.425Z,97.3
2019-02-04T12:50:03.815Z,98
2019-02-04T12:51:02.884Z,97.7
2019-02-04T12:52:03.839Z,98
2019-02-04T12:53:04.135Z,98.2
2019-02-04T12:54:03.695Z,97.5
2019-02-04T12:55:03.683Z,96.8
2019-02-04T12:56:03.605Z,97.7
2019-02-04T12:57:03.053Z,97.5
2019-02-04T12:58:03.558Z,98
2019-02-04T12:59:03.146Z,98.4
2019-02-04T13:00:03.941Z,98.2
2019-02-04T13:01:04.304Z,100.1
2019-02-04T13:02:03.406Z,100.5
2019-02-04T13:03:03.189Z,99.6
2019-02-04T13:04:03.613Z,101
2019-02-04T13:05:03.036Z,100.5
2019-02-04T13:06:03.238Z,100.1
2019-02-04T13:07:03.426Z,100.5
2019-02-04T13:08:03.219Z,101
2019-02-04T13:09:04.577Z,100.8
2019-02-04T13:10:03.531Z,101.7
2019-02-04T13:11:03.049Z,101.2
2019-02-04T13:12:03.181Z,101.5
2019-02-04T13:13:03.380Z,100.8
2019-02-04T13:14:03.527Z,102.4
2019-02-04T13:15:02.984Z,101.2
2019-02-04T13:16:02.830Z,101.2
2019-02-04T13:17:04.384Z,103.3
2019-02-04T13:18:02.936Z,104.3
2019-02-04T13:19:02.888Z,103.1
2019-02-04T13:20:03.569Z,104.5
2019-02-04T13:21:03.684Z,103.3
2019-02-04T13:22:03.419Z,101.9
2019-02-04T13:23:03.563Z,103.6
2019-02-04T13:24:02.777Z,100.1